sensor_id;sensor_type;location;lat;lon;timestamp;P1;durP1;ratioP1;P2;durP2;ratioP2
6013;SDS011;3035;49.928;8.410;2023-03-31T00:00:26;4.67;;;1.90;;
6013;SDS011;3035;49.928;8.410;2023-03-31T00:02:56;5.53;;;1.70;;
6013;SDS011;3035;49.928;8.410;2023-03-31T00:05:25;4.77;;;2.00;;
6013;SDS011;3035;49.928;8.410;2023-03-31T00:07:55;1.97;;;1.40;;
6013;SDS011;3035;49.928;8.410;2023-03-31T00:10:24;6.53;;;1.57;;
6013;SDS011;3035;49.928;8.410;2023-03-31T00:12:54;3.90;;;1.70;;
6013;SDS011;3035;49.928;8.410;2023-03-31T00:15:23;4.20;;;1.80;;
6013;SDS011;3035;49.928;8.410;2023-03-31T00:17:52;5.87;;;1.50;;
6013;SDS011;3035;49.928;8.410;2023-03-31T00:20:22;11.80;;;1.90;;
6013;SDS011;3035;49.928;8.410;2023-03-31T00:22:51;6.30;;;2.00;;
6013;SDS011;3035;49.928;8.410;2023-03-31T00:25:20;3.20;;;1.50;;
6013;SDS011;3035;49.928;8.410;2023-03-31T00:27:49;10.50;;;2.00;;
6013;SDS011;3035;49.928;8.410;2023-03-31T00:30:19;3.23;;;1.33;;
6013;SDS011;3035;49.928;8.410;2023-03-31T00:32:48;3.67;;;1.60;;
6013;SDS011;3035;49.928;8.410;2023-03-31T00:35:17;7.23;;;1.50;;
6013;SDS011;3035;49.928;8.410;2023-03-31T00:37:46;8.97;;;2.07;;
6013;SDS011;3035;49.928;8.410;2023-03-31T00:40:16;4.17;;;1.50;;
6013;SDS011;3035;49.928;8.410;2023-03-31T00:42:45;7.27;;;2.37;;
6013;SDS011;3035;49.928;8.410;2023-03-31T00:45:21;4.43;;;1.60;;
6013;SDS011;3035;49.928;8.410;2023-03-31T00:47:50;6.43;;;2.13;;
6013;SDS011;3035;49.928;8.410;2023-03-31T00:50:22;4.20;;;1.67;;
6013;SDS011;3035;49.928;8.410;2023-03-31T00:52:53;3.50;;;1.50;;
6013;SDS011;3035;49.928;8.410;2023-03-31T00:55:24;4.47;;;1.80;;
6013;SDS011;3035;49.928;8.410;2023-03-31T00:57:52;4.67;;;2.20;;
6013;SDS011;3035;49.928;8.410;2023-03-31T01:00:21;6.57;;;2.30;;
6013;SDS011;3035;49.928;8.410;2023-03-31T01:02:52;8.43;;;1.90;;
6013;SDS011;3035;49.928;8.410;2023-03-31T01:05:22;5.43;;;1.63;;
6013;SDS011;3035;49.928;8.410;2023-03-31T01:07:50;8.20;;;1.97;;
6013;SDS011;3035;49.928;8.410;2023-03-31T01:10:20;7.03;;;2.03;;
6013;SDS011;3035;49.928;8.410;2023-03-31T01:12:50;3.10;;;2.13;;
6013;SDS011;3035;49.928;8.410;2023-03-31T01:15:18;4.57;;;1.40;;
6013;SDS011;3035;49.928;8.410;2023-03-31T01:17:47;7.13;;;1.70;;
6013;SDS011;3035;49.928;8.410;2023-03-31T01:20:21;5.60;;;1.63;;
6013;SDS011;3035;49.928;8.410;2023-03-31T01:28:46;9.40;;;1.40;;
6013;SDS011;3035;49.928;8.410;2023-03-31T01:31:40;4.37;;;1.93;;
6013;SDS011;3035;49.928;8.410;2023-03-31T01:34:52;13.03;;;2.87;;
6013;SDS011;3035;49.928;8.410;2023-03-31T01:40:42;7.80;;;2.50;;
6013;SDS011;3035;49.928;8.410;2023-03-31T01:43:19;14.33;;;2.33;;
6013;SDS011;3035;49.928;8.410;2023-03-31T01:48:31;6.70;;;1.80;;
6013;SDS011;3035;49.928;8.410;2023-03-31T01:51:05;6.20;;;2.17;;
6013;SDS011;3035;49.928;8.410;2023-03-31T01:56:20;9.17;;;2.10;;
6013;SDS011;3035;49.928;8.410;2023-03-31T01:58:56;12.57;;;1.83;;
6013;SDS011;3035;49.928;8.410;2023-03-31T02:01:46;4.20;;;1.83;;
6013;SDS011;3035;49.928;8.410;2023-03-31T02:04:16;6.07;;;2.10;;
6013;SDS011;3035;49.928;8.410;2023-03-31T02:06:51;9.13;;;1.83;;
6013;SDS011;3035;49.928;8.410;2023-03-31T02:09:24;6.97;;;2.10;;
6013;SDS011;3035;49.928;8.410;2023-03-31T02:11:53;9.73;;;2.13;;
6013;SDS011;3035;49.928;8.410;2023-03-31T02:14:23;7.93;;;2.37;;
6013;SDS011;3035;49.928;8.410;2023-03-31T02:16:53;7.60;;;1.87;;
6013;SDS011;3035;49.928;8.410;2023-03-31T02:19:21;13.97;;;3.30;;
6013;SDS011;3035;49.928;8.410;2023-03-31T02:21:51;4.27;;;1.70;;
6013;SDS011;3035;49.928;8.410;2023-03-31T02:24:20;4.87;;;1.70;;
6013;SDS011;3035;49.928;8.410;2023-03-31T02:26:55;9.60;;;1.90;;
6013;SDS011;3035;49.928;8.410;2023-03-31T02:29:22;9.43;;;2.67;;
6013;SDS011;3035;49.928;8.410;2023-03-31T02:31:55;5.23;;;1.60;;
6013;SDS011;3035;49.928;8.410;2023-03-31T02:34:34;6.40;;;2.23;;
6013;SDS011;3035;49.928;8.410;2023-03-31T02:37:04;6.30;;;1.97;;
6013;SDS011;3035;49.928;8.410;2023-03-31T02:39:34;6.20;;;2.40;;
6013;SDS011;3035;49.928;8.410;2023-03-31T02:42:03;8.40;;;2.27;;
6013;SDS011;3035;49.928;8.410;2023-03-31T02:44:35;8.60;;;2.10;;
6013;SDS011;3035;49.928;8.410;2023-03-31T02:47:06;13.47;;;2.27;;
6013;SDS011;3035;49.928;8.410;2023-03-31T02:49:36;5.70;;;1.93;;
6013;SDS011;3035;49.928;8.410;2023-03-31T02:52:14;11.20;;;1.97;;
6013;SDS011;3035;49.928;8.410;2023-03-31T02:54:56;4.63;;;1.77;;
6013;SDS011;3035;49.928;8.410;2023-03-31T02:57:30;7.77;;;2.00;;
6013;SDS011;3035;49.928;8.410;2023-03-31T03:00:06;7.87;;;1.97;;
6013;SDS011;3035;49.928;8.410;2023-03-31T03:02:45;3.70;;;1.40;;
6013;SDS011;3035;49.928;8.410;2023-03-31T03:05:32;2.97;;;1.83;;
6013;SDS011;3035;49.928;8.410;2023-03-31T03:08:08;7.43;;;3.00;;
6013;SDS011;3035;49.928;8.410;2023-03-31T03:10:45;9.03;;;2.00;;
6013;SDS011;3035;49.928;8.410;2023-03-31T03:13:17;6.40;;;1.77;;
6013;SDS011;3035;49.928;8.410;2023-03-31T03:16:01;9.73;;;2.00;;
6013;SDS011;3035;49.928;8.410;2023-03-31T03:18:51;8.80;;;1.70;;
6013;SDS011;3035;49.928;8.410;2023-03-31T03:21:13;12.13;;;2.03;;
6013;SDS011;3035;49.928;8.410;2023-03-31T03:23:42;3.00;;;1.47;;
6013;SDS011;3035;49.928;8.410;2023-03-31T03:26:12;3.90;;;1.80;;
6013;SDS011;3035;49.928;8.410;2023-03-31T03:28:41;11.87;;;2.80;;
6013;SDS011;3035;49.928;8.410;2023-03-31T03:31:10;7.57;;;2.60;;
6013;SDS011;3035;49.928;8.410;2023-03-31T03:33:40;5.57;;;2.67;;
6013;SDS011;3035;49.928;8.410;2023-03-31T03:36:09;5.53;;;1.70;;
6013;SDS011;3035;49.928;8.410;2023-03-31T03:38:38;11.10;;;1.93;;
6013;SDS011;3035;49.928;8.410;2023-03-31T03:41:07;4.33;;;1.53;;
6013;SDS011;3035;49.928;8.410;2023-03-31T03:43:36;17.97;;;2.07;;
6013;SDS011;3035;49.928;8.410;2023-03-31T03:46:06;9.63;;;1.97;;
6013;SDS011;3035;49.928;8.410;2023-03-31T03:48:35;4.67;;;1.57;;
6013;SDS011;3035;49.928;8.410;2023-03-31T03:51:04;8.90;;;1.80;;
6013;SDS011;3035;49.928;8.410;2023-03-31T03:53:33;10.40;;;2.33;;
6013;SDS011;3035;49.928;8.410;2023-03-31T03:56:03;4.80;;;1.87;;
6013;SDS011;3035;49.928;8.410;2023-03-31T03:58:33;13.73;;;1.90;;
6013;SDS011;3035;49.928;8.410;2023-03-31T04:01:02;3.53;;;1.47;;
6013;SDS011;3035;49.928;8.410;2023-03-31T04:03:31;8.03;;;1.90;;
6013;SDS011;3035;49.928;8.410;2023-03-31T04:06:00;6.07;;;1.47;;
6013;SDS011;3035;49.928;8.410;2023-03-31T04:08:29;6.70;;;1.73;;
6013;SDS011;3035;49.928;8.410;2023-03-31T04:10:59;5.47;;;1.40;;
6013;SDS011;3035;49.928;8.410;2023-03-31T04:13:28;4.90;;;1.90;;
6013;SDS011;3035;49.928;8.410;2023-03-31T04:15:57;9.03;;;1.60;;
6013;SDS011;3035;49.928;8.410;2023-03-31T04:18:27;9.40;;;1.87;;
6013;SDS011;3035;49.928;8.410;2023-03-31T04:20:56;10.17;;;1.70;;
6013;SDS011;3035;49.928;8.410;2023-03-31T04:23:35;9.83;;;1.53;;
6013;SDS011;3035;49.928;8.410;2023-03-31T04:26:13;13.20;;;3.30;;
6013;SDS011;3035;49.928;8.410;2023-03-31T04:28:42;9.10;;;2.70;;
6013;SDS011;3035;49.928;8.410;2023-03-31T04:31:12;4.50;;;2.33;;
6013;SDS011;3035;49.928;8.410;2023-03-31T04:33:42;8.73;;;1.50;;
6013;SDS011;3035;49.928;8.410;2023-03-31T04:36:10;17.50;;;3.13;;
6013;SDS011;3035;49.928;8.410;2023-03-31T04:38:47;7.27;;;2.37;;
6013;SDS011;3035;49.928;8.410;2023-03-31T04:41:14;5.37;;;1.93;;
6013;SDS011;3035;49.928;8.410;2023-03-31T04:43:44;9.37;;;2.50;;
6013;SDS011;3035;49.928;8.410;2023-03-31T04:46:12;11.87;;;2.70;;
6013;SDS011;3035;49.928;8.410;2023-03-31T04:48:41;5.10;;;1.70;;
6013;SDS011;3035;49.928;8.410;2023-03-31T04:51:09;7.77;;;1.90;;
6013;SDS011;3035;49.928;8.410;2023-03-31T04:53:38;3.27;;;1.20;;
6013;SDS011;3035;49.928;8.410;2023-03-31T04:56:07;4.93;;;1.43;;
6013;SDS011;3035;49.928;8.410;2023-03-31T04:58:36;8.60;;;1.80;;
6013;SDS011;3035;49.928;8.410;2023-03-31T05:01:04;6.97;;;1.70;;
6013;SDS011;3035;49.928;8.410;2023-03-31T05:03:32;3.17;;;1.43;;
6013;SDS011;3035;49.928;8.410;2023-03-31T05:06:00;3.90;;;1.20;;
6013;SDS011;3035;49.928;8.410;2023-03-31T05:08:28;4.00;;;1.37;;
6013;SDS011;3035;49.928;8.410;2023-03-31T05:10:57;6.60;;;1.43;;
6013;SDS011;3035;49.928;8.410;2023-03-31T05:13:26;4.70;;;1.97;;
6013;SDS011;3035;49.928;8.410;2023-03-31T05:15:54;6.03;;;1.47;;
6013;SDS011;3035;49.928;8.410;2023-03-31T05:18:23;6.50;;;1.47;;
6013;SDS011;3035;49.928;8.410;2023-03-31T05:20:52;5.80;;;1.43;;
6013;SDS011;3035;49.928;8.410;2023-03-31T05:23:21;5.27;;;1.70;;
6013;SDS011;3035;49.928;8.410;2023-03-31T05:25:49;6.83;;;1.67;;
6013;SDS011;3035;49.928;8.410;2023-03-31T05:28:18;9.73;;;1.70;;
6013;SDS011;3035;49.928;8.410;2023-03-31T05:30:47;14.87;;;1.57;;
6013;SDS011;3035;49.928;8.410;2023-03-31T05:33:15;9.73;;;1.90;;
6013;SDS011;3035;49.928;8.410;2023-03-31T05:35:43;6.60;;;1.80;;
6013;SDS011;3035;49.928;8.410;2023-03-31T05:38:12;4.47;;;1.50;;
6013;SDS011;3035;49.928;8.410;2023-03-31T05:40:40;5.83;;;2.27;;
6013;SDS011;3035;49.928;8.410;2023-03-31T05:43:08;9.33;;;1.70;;
6013;SDS011;3035;49.928;8.410;2023-03-31T05:45:36;7.00;;;2.27;;
6013;SDS011;3035;49.928;8.410;2023-03-31T05:48:05;5.40;;;1.90;;
6013;SDS011;3035;49.928;8.410;2023-03-31T05:50:34;6.93;;;1.67;;
6013;SDS011;3035;49.928;8.410;2023-03-31T05:53:03;12.73;;;2.10;;
6013;SDS011;3035;49.928;8.410;2023-03-31T05:55:31;11.33;;;2.40;;
6013;SDS011;3035;49.928;8.410;2023-03-31T05:58:00;8.87;;;1.80;;
6013;SDS011;3035;49.928;8.410;2023-03-31T06:00:28;10.03;;;2.07;;
6013;SDS011;3035;49.928;8.410;2023-03-31T06:02:57;8.33;;;3.00;;
6013;SDS011;3035;49.928;8.410;2023-03-31T06:05:27;8.23;;;2.80;;
6013;SDS011;3035;49.928;8.410;2023-03-31T06:07:55;7.27;;;2.77;;
6013;SDS011;3035;49.928;8.410;2023-03-31T06:10:24;7.50;;;1.83;;
6013;SDS011;3035;49.928;8.410;2023-03-31T06:12:53;10.30;;;2.50;;
6013;SDS011;3035;49.928;8.410;2023-03-31T06:15:21;4.60;;;1.90;;
6013;SDS011;3035;49.928;8.410;2023-03-31T06:17:50;4.17;;;1.90;;
6013;SDS011;3035;49.928;8.410;2023-03-31T06:20:18;6.93;;;2.00;;
6013;SDS011;3035;49.928;8.410;2023-03-31T06:22:47;8.70;;;2.17;;
6013;SDS011;3035;49.928;8.410;2023-03-31T06:25:15;8.23;;;2.47;;
6013;SDS011;3035;49.928;8.410;2023-03-31T06:27:44;11.17;;;2.17;;
6013;SDS011;3035;49.928;8.410;2023-03-31T06:30:13;8.37;;;2.43;;
6013;SDS011;3035;49.928;8.410;2023-03-31T06:32:41;8.23;;;3.23;;
6013;SDS011;3035;49.928;8.410;2023-03-31T06:35:09;13.57;;;5.17;;
6013;SDS011;3035;49.928;8.410;2023-03-31T06:37:37;22.47;;;5.80;;
6013;SDS011;3035;49.928;8.410;2023-03-31T06:40:07;17.93;;;5.30;;
6013;SDS011;3035;49.928;8.410;2023-03-31T06:42:36;14.57;;;4.70;;
6013;SDS011;3035;49.928;8.410;2023-03-31T06:45:04;7.97;;;3.37;;
6013;SDS011;3035;49.928;8.410;2023-03-31T06:47:33;11.90;;;3.33;;
6013;SDS011;3035;49.928;8.410;2023-03-31T06:50:01;16.87;;;3.80;;
6013;SDS011;3035;49.928;8.410;2023-03-31T06:52:31;7.70;;;3.10;;
6013;SDS011;3035;49.928;8.410;2023-03-31T06:54:59;10.23;;;3.37;;
6013;SDS011;3035;49.928;8.410;2023-03-31T06:57:27;13.13;;;3.47;;
6013;SDS011;3035;49.928;8.410;2023-03-31T06:59:56;10.53;;;3.37;;
6013;SDS011;3035;49.928;8.410;2023-03-31T07:02:24;8.87;;;3.47;;
6013;SDS011;3035;49.928;8.410;2023-03-31T07:04:52;11.30;;;3.43;;
6013;SDS011;3035;49.928;8.410;2023-03-31T07:07:20;10.50;;;2.60;;
6013;SDS011;3035;49.928;8.410;2023-03-31T07:09:49;14.87;;;3.00;;
6013;SDS011;3035;49.928;8.410;2023-03-31T07:12:18;6.90;;;3.10;;
6013;SDS011;3035;49.928;8.410;2023-03-31T07:14:46;9.57;;;4.00;;
6013;SDS011;3035;49.928;8.410;2023-03-31T07:17:14;7.80;;;3.83;;
6013;SDS011;3035;49.928;8.410;2023-03-31T07:19:43;10.10;;;3.83;;
6013;SDS011;3035;49.928;8.410;2023-03-31T07:22:12;10.10;;;4.07;;
6013;SDS011;3035;49.928;8.410;2023-03-31T07:24:42;16.67;;;3.70;;
6013;SDS011;3035;49.928;8.410;2023-03-31T07:27:10;7.20;;;3.77;;
6013;SDS011;3035;49.928;8.410;2023-03-31T07:29:39;10.50;;;3.47;;
6013;SDS011;3035;49.928;8.410;2023-03-31T07:32:07;8.17;;;4.17;;
6013;SDS011;3035;49.928;8.410;2023-03-31T07:34:36;8.90;;;3.57;;
6013;SDS011;3035;49.928;8.410;2023-03-31T07:37:04;8.97;;;3.50;;
6013;SDS011;3035;49.928;8.410;2023-03-31T07:39:34;10.10;;;4.17;;
6013;SDS011;3035;49.928;8.410;2023-03-31T07:42:01;8.27;;;4.13;;
6013;SDS011;3035;49.928;8.410;2023-03-31T07:44:31;10.53;;;4.30;;
6013;SDS011;3035;49.928;8.410;2023-03-31T07:46:58;11.03;;;3.90;;
6013;SDS011;3035;49.928;8.410;2023-03-31T07:49:30;8.13;;;4.30;;
6013;SDS011;3035;49.928;8.410;2023-03-31T07:51:58;4.80;;;2.97;;
6013;SDS011;3035;49.928;8.410;2023-03-31T07:54:26;13.00;;;3.70;;
6013;SDS011;3035;49.928;8.410;2023-03-31T07:56:55;15.37;;;4.63;;
6013;SDS011;3035;49.928;8.410;2023-03-31T07:59:24;8.00;;;3.47;;
6013;SDS011;3035;49.928;8.410;2023-03-31T08:01:52;6.73;;;3.87;;
6013;SDS011;3035;49.928;8.410;2023-03-31T08:04:20;9.33;;;3.37;;
6013;SDS011;3035;49.928;8.410;2023-03-31T08:06:49;6.90;;;3.40;;
6013;SDS011;3035;49.928;8.410;2023-03-31T08:09:17;12.37;;;4.80;;
6013;SDS011;3035;49.928;8.410;2023-03-31T08:11:46;17.97;;;4.03;;
6013;SDS011;3035;49.928;8.410;2023-03-31T08:14:15;7.47;;;3.13;;
6013;SDS011;3035;49.928;8.410;2023-03-31T08:16:43;20.63;;;4.80;;
6013;SDS011;3035;49.928;8.410;2023-03-31T08:19:11;9.20;;;3.57;;
6013;SDS011;3035;49.928;8.410;2023-03-31T08:21:39;9.63;;;4.13;;
6013;SDS011;3035;49.928;8.410;2023-03-31T08:24:07;7.50;;;3.27;;
6013;SDS011;3035;49.928;8.410;2023-03-31T08:26:36;4.53;;;2.77;;
6013;SDS011;3035;49.928;8.410;2023-03-31T08:29:05;6.70;;;2.93;;
6013;SDS011;3035;49.928;8.410;2023-03-31T08:31:34;2.90;;;2.37;;
6013;SDS011;3035;49.928;8.410;2023-03-31T08:34:03;9.73;;;3.37;;
6013;SDS011;3035;49.928;8.410;2023-03-31T08:36:31;2.70;;;2.30;;
6013;SDS011;3035;49.928;8.410;2023-03-31T08:39:00;8.97;;;3.77;;
6013;SDS011;3035;49.928;8.410;2023-03-31T08:41:35;4.40;;;2.13;;
6013;SDS011;3035;49.928;8.410;2023-03-31T08:44:12;7.33;;;2.60;;
6013;SDS011;3035;49.928;8.410;2023-03-31T08:46:41;3.67;;;2.10;;
6013;SDS011;3035;49.928;8.410;2023-03-31T08:49:12;8.60;;;2.10;;
6013;SDS011;3035;49.928;8.410;2023-03-31T08:51:39;4.40;;;1.90;;
6013;SDS011;3035;49.928;8.410;2023-03-31T08:54:18;4.03;;;2.03;;
6013;SDS011;3035;49.928;8.410;2023-03-31T08:56:50;6.63;;;2.13;;
6013;SDS011;3035;49.928;8.410;2023-03-31T08:59:25;4.43;;;2.47;;
6013;SDS011;3035;49.928;8.410;2023-03-31T09:04:54;2.40;;;1.70;;
6013;SDS011;3035;49.928;8.410;2023-03-31T09:07:43;5.27;;;1.77;;
6013;SDS011;3035;49.928;8.410;2023-03-31T09:10:25;3.80;;;1.90;;
6013;SDS011;3035;49.928;8.410;2023-03-31T09:16:11;5.63;;;2.33;;
6013;SDS011;3035;49.928;8.410;2023-03-31T09:18:39;6.20;;;3.30;;
6013;SDS011;3035;49.928;8.410;2023-03-31T09:21:11;2.93;;;2.00;;
6013;SDS011;3035;49.928;8.410;2023-03-31T09:23:45;9.20;;;3.53;;
6013;SDS011;3035;49.928;8.410;2023-03-31T09:26:22;7.03;;;2.60;;
6013;SDS011;3035;49.928;8.410;2023-03-31T09:28:53;6.67;;;2.40;;
6013;SDS011;3035;49.928;8.410;2023-03-31T09:31:21;6.50;;;2.70;;
6013;SDS011;3035;49.928;8.410;2023-03-31T09:33:50;4.77;;;2.17;;
6013;SDS011;3035;49.928;8.410;2023-03-31T09:36:19;10.13;;;2.60;;
6013;SDS011;3035;49.928;8.410;2023-03-31T09:38:47;5.10;;;2.50;;
6013;SDS011;3035;49.928;8.410;2023-03-31T09:41:16;13.83;;;3.13;;
6013;SDS011;3035;49.928;8.410;2023-03-31T09:43:45;8.63;;;1.90;;
6013;SDS011;3035;49.928;8.410;2023-03-31T09:46:18;5.30;;;1.97;;
6013;SDS011;3035;49.928;8.410;2023-03-31T09:48:49;7.07;;;2.10;;
6013;SDS011;3035;49.928;8.410;2023-03-31T09:51:19;10.80;;;2.77;;
6013;SDS011;3035;49.928;8.410;2023-03-31T09:53:49;7.13;;;2.23;;
6013;SDS011;3035;49.928;8.410;2023-03-31T09:59:13;7.73;;;2.13;;
6013;SDS011;3035;49.928;8.410;2023-03-31T10:01:44;10.00;;;2.47;;
6013;SDS011;3035;49.928;8.410;2023-03-31T10:04:17;7.50;;;2.57;;
6013;SDS011;3035;49.928;8.410;2023-03-31T10:06:51;8.97;;;3.50;;
6013;SDS011;3035;49.928;8.410;2023-03-31T10:09:23;7.30;;;3.10;;
6013;SDS011;3035;49.928;8.410;2023-03-31T10:11:53;7.33;;;2.20;;
6013;SDS011;3035;49.928;8.410;2023-03-31T10:14:26;4.60;;;2.10;;
6013;SDS011;3035;49.928;8.410;2023-03-31T10:16:54;5.60;;;1.80;;
6013;SDS011;3035;49.928;8.410;2023-03-31T10:19:23;4.97;;;1.80;;
6013;SDS011;3035;49.928;8.410;2023-03-31T10:21:55;5.40;;;1.57;;
6013;SDS011;3035;49.928;8.410;2023-03-31T10:24:22;2.53;;;1.20;;
6013;SDS011;3035;49.928;8.410;2023-03-31T10:26:51;2.03;;;1.00;;
6013;SDS011;3035;49.928;8.410;2023-03-31T10:29:21;0.80;;;0.80;;
6013;SDS011;3035;49.928;8.410;2023-03-31T10:31:49;2.80;;;1.20;;
6013;SDS011;3035;49.928;8.410;2023-03-31T10:34:17;4.27;;;1.37;;
6013;SDS011;3035;49.928;8.410;2023-03-31T10:36:47;1.93;;;1.20;;
6013;SDS011;3035;49.928;8.410;2023-03-31T10:39:15;5.27;;;1.40;;
6013;SDS011;3035;49.928;8.410;2023-03-31T10:41:48;1.47;;;1.00;;
6013;SDS011;3035;49.928;8.410;2023-03-31T10:47:08;5.90;;;1.60;;
6013;SDS011;3035;49.928;8.410;2023-03-31T10:49:48;4.83;;;1.50;;
6013;SDS011;3035;49.928;8.410;2023-03-31T10:52:18;3.87;;;1.80;;
6013;SDS011;3035;49.928;8.410;2023-03-31T10:54:54;3.20;;;1.70;;
6013;SDS011;3035;49.928;8.410;2023-03-31T11:03:02;3.97;;;1.90;;
6013;SDS011;3035;49.928;8.410;2023-03-31T11:05:49;10.10;;;2.67;;
6013;SDS011;3035;49.928;8.410;2023-03-31T11:08:20;6.20;;;1.93;;
6013;SDS011;3035;49.928;8.410;2023-03-31T11:11:03;5.40;;;2.03;;
6013;SDS011;3035;49.928;8.410;2023-03-31T11:13:34;6.13;;;1.93;;
6013;SDS011;3035;49.928;8.410;2023-03-31T11:16:11;14.50;;;2.07;;
6013;SDS011;3035;49.928;8.410;2023-03-31T11:21:52;9.77;;;2.40;;
6013;SDS011;3035;49.928;8.410;2023-03-31T11:24:22;11.77;;;2.50;;
6013;SDS011;3035;49.928;8.410;2023-03-31T11:27:04;13.73;;;2.60;;
6013;SDS011;3035;49.928;8.410;2023-03-31T11:29:54;13.17;;;2.50;;
6013;SDS011;3035;49.928;8.410;2023-03-31T11:32:29;12.43;;;2.53;;
6013;SDS011;3035;49.928;8.410;2023-03-31T11:40:49;9.27;;;2.10;;
6013;SDS011;3035;49.928;8.410;2023-03-31T11:43:29;8.50;;;2.30;;
6013;SDS011;3035;49.928;8.410;2023-03-31T11:46:03;6.17;;;2.40;;
6013;SDS011;3035;49.928;8.410;2023-03-31T11:48:32;9.00;;;3.03;;
6013;SDS011;3035;49.928;8.410;2023-03-31T11:51:20;15.03;;;3.00;;
6013;SDS011;3035;49.928;8.410;2023-03-31T11:53:50;8.30;;;2.33;;
6013;SDS011;3035;49.928;8.410;2023-03-31T11:56:18;13.10;;;2.10;;
6013;SDS011;3035;49.928;8.410;2023-03-31T11:58:50;10.20;;;3.17;;
6013;SDS011;3035;49.928;8.410;2023-03-31T12:07:17;10.80;;;2.00;;
6013;SDS011;3035;49.928;8.410;2023-03-31T12:09:47;8.27;;;2.53;;
6013;SDS011;3035;49.928;8.410;2023-03-31T12:12:23;7.30;;;2.20;;
6013;SDS011;3035;49.928;8.410;2023-03-31T12:14:52;10.67;;;2.53;;
6013;SDS011;3035;49.928;8.410;2023-03-31T12:17:22;6.23;;;1.80;;
6013;SDS011;3035;49.928;8.410;2023-03-31T12:19:53;9.53;;;2.20;;
6013;SDS011;3035;49.928;8.410;2023-03-31T12:22:24;3.10;;;1.60;;
6013;SDS011;3035;49.928;8.410;2023-03-31T12:24:51;12.47;;;2.37;;
6013;SDS011;3035;49.928;8.410;2023-03-31T12:27:19;5.07;;;1.90;;
6013;SDS011;3035;49.928;8.410;2023-03-31T12:29:55;6.03;;;1.50;;
6013;SDS011;3035;49.928;8.410;2023-03-31T12:32:26;4.53;;;1.63;;
6013;SDS011;3035;49.928;8.410;2023-03-31T12:34:58;7.17;;;1.60;;
6013;SDS011;3035;49.928;8.410;2023-03-31T12:40:23;10.03;;;2.03;;
6013;SDS011;3035;49.928;8.410;2023-03-31T12:42:56;8.20;;;1.80;;
6013;SDS011;3035;49.928;8.410;2023-03-31T12:45:35;13.23;;;2.97;;
6013;SDS011;3035;49.928;8.410;2023-03-31T12:48:06;7.37;;;1.80;;
6013;SDS011;3035;49.928;8.410;2023-03-31T12:50:40;11.33;;;2.00;;
6013;SDS011;3035;49.928;8.410;2023-03-31T12:53:22;8.03;;;2.20;;
6013;SDS011;3035;49.928;8.410;2023-03-31T12:55:54;3.67;;;1.90;;
6013;SDS011;3035;49.928;8.410;2023-03-31T12:58:41;9.33;;;2.13;;
6013;SDS011;3035;49.928;8.410;2023-03-31T13:01:11;8.10;;;2.43;;
6013;SDS011;3035;49.928;8.410;2023-03-31T13:03:43;8.00;;;2.10;;
6013;SDS011;3035;49.928;8.410;2023-03-31T13:06:44;5.53;;;2.00;;
6013;SDS011;3035;49.928;8.410;2023-03-31T13:12:07;4.87;;;2.03;;
6013;SDS011;3035;49.928;8.410;2023-03-31T13:14:47;4.63;;;1.20;;
6013;SDS011;3035;49.928;8.410;2023-03-31T13:17:20;3.60;;;0.90;;
6013;SDS011;3035;49.928;8.410;2023-03-31T13:19:52;1.27;;;0.80;;
6013;SDS011;3035;49.928;8.410;2023-03-31T13:25:23;1.23;;;0.73;;
6013;SDS011;3035;49.928;8.410;2023-03-31T13:27:29;1.90;;;0.97;;
6013;SDS011;3035;49.928;8.410;2023-03-31T13:29:56;4.40;;;0.70;;
6013;SDS011;3035;49.928;8.410;2023-03-31T13:32:26;2.90;;;0.80;;
6013;SDS011;3035;49.928;8.410;2023-03-31T13:34:58;2.97;;;0.90;;
6013;SDS011;3035;49.928;8.410;2023-03-31T13:37:36;1.00;;;0.80;;
6013;SDS011;3035;49.928;8.410;2023-03-31T13:43:11;1.30;;;0.90;;
6013;SDS011;3035;49.928;8.410;2023-03-31T13:45:52;2.03;;;0.77;;
6013;SDS011;3035;49.928;8.410;2023-03-31T13:54:28;1.80;;;0.80;;
6013;SDS011;3035;49.928;8.410;2023-03-31T13:57:21;2.23;;;1.00;;
6013;SDS011;3035;49.928;8.410;2023-03-31T14:00:24;3.73;;;1.00;;
6013;SDS011;3035;49.928;8.410;2023-03-31T14:08:56;2.50;;;1.23;;
6013;SDS011;3035;49.928;8.410;2023-03-31T14:11:25;2.40;;;1.00;;
6013;SDS011;3035;49.928;8.410;2023-03-31T14:14:00;4.30;;;1.47;;
6013;SDS011;3035;49.928;8.410;2023-03-31T14:16:31;2.47;;;1.00;;
6013;SDS011;3035;49.928;8.410;2023-03-31T14:19:05;4.50;;;1.30;;
6013;SDS011;3035;49.928;8.410;2023-03-31T14:22:16;1.97;;;0.90;;
6013;SDS011;3035;49.928;8.410;2023-03-31T14:24:50;3.80;;;1.20;;
6013;SDS011;3035;49.928;8.410;2023-03-31T14:27:22;3.63;;;1.00;;
6013;SDS011;3035;49.928;8.410;2023-03-31T14:30:01;3.33;;;1.20;;
6013;SDS011;3035;49.928;8.410;2023-03-31T14:32:48;4.30;;;1.37;;
6013;SDS011;3035;49.928;8.410;2023-03-31T14:35:23;3.53;;;1.33;;
6013;SDS011;3035;49.928;8.410;2023-03-31T14:37:53;4.20;;;1.40;;
6013;SDS011;3035;49.928;8.410;2023-03-31T14:40:22;4.67;;;1.73;;
6013;SDS011;3035;49.928;8.410;2023-03-31T14:42:50;2.63;;;1.27;;
6013;SDS011;3035;49.928;8.410;2023-03-31T14:45:20;6.30;;;1.30;;
6013;SDS011;3035;49.928;8.410;2023-03-31T14:50:27;6.87;;;2.33;;
6013;SDS011;3035;49.928;8.410;2023-03-31T14:52:56;7.20;;;2.07;;
6013;SDS011;3035;49.928;8.410;2023-03-31T14:55:26;5.13;;;1.50;;
6013;SDS011;3035;49.928;8.410;2023-03-31T14:57:54;3.83;;;1.17;;
6013;SDS011;3035;49.928;8.410;2023-03-31T15:00:25;4.37;;;1.30;;
6013;SDS011;3035;49.928;8.410;2023-03-31T15:02:52;7.40;;;1.30;;
6013;SDS011;3035;49.928;8.410;2023-03-31T15:05:26;1.97;;;1.13;;
6013;SDS011;3035;49.928;8.410;2023-03-31T15:08:01;7.50;;;1.30;;
6013;SDS011;3035;49.928;8.410;2023-03-31T15:10:31;3.33;;;0.90;;
6013;SDS011;3035;49.928;8.410;2023-03-31T15:12:58;1.10;;;0.93;;
6013;SDS011;3035;49.928;8.410;2023-03-31T15:15:27;4.20;;;1.10;;
6013;SDS011;3035;49.928;8.410;2023-03-31T15:17:55;5.80;;;1.07;;
6013;SDS011;3035;49.928;8.410;2023-03-31T15:20:25;4.40;;;1.37;;
6013;SDS011;3035;49.928;8.410;2023-03-31T15:22:54;4.03;;;1.00;;
6013;SDS011;3035;49.928;8.410;2023-03-31T15:25:23;3.40;;;1.50;;
6013;SDS011;3035;49.928;8.410;2023-03-31T15:27:53;4.70;;;1.10;;
6013;SDS011;3035;49.928;8.410;2023-03-31T15:30:22;3.83;;;1.17;;
6013;SDS011;3035;49.928;8.410;2023-03-31T15:32:49;2.97;;;1.00;;
6013;SDS011;3035;49.928;8.410;2023-03-31T15:35:22;2.03;;;1.10;;
6013;SDS011;3035;49.928;8.410;2023-03-31T15:37:50;9.30;;;1.40;;
6013;SDS011;3035;49.928;8.410;2023-03-31T15:40:20;3.80;;;1.30;;
6013;SDS011;3035;49.928;8.410;2023-03-31T15:42:49;5.03;;;1.80;;
6013;SDS011;3035;49.928;8.410;2023-03-31T15:45:25;5.20;;;1.13;;
6013;SDS011;3035;49.928;8.410;2023-03-31T15:48:20;5.20;;;1.57;;
6013;SDS011;3035;49.928;8.410;2023-03-31T15:50:47;6.60;;;1.40;;
6013;SDS011;3035;49.928;8.410;2023-03-31T15:56:03;4.13;;;1.70;;
6013;SDS011;3035;49.928;8.410;2023-03-31T16:01:17;5.40;;;1.53;;
6013;SDS011;3035;49.928;8.410;2023-03-31T16:03:46;4.13;;;1.30;;
6013;SDS011;3035;49.928;8.410;2023-03-31T16:06:21;7.00;;;2.10;;
6013;SDS011;3035;49.928;8.410;2023-03-31T16:08:51;5.50;;;1.70;;
6013;SDS011;3035;49.928;8.410;2023-03-31T16:11:35;7.60;;;1.13;;
6013;SDS011;3035;49.928;8.410;2023-03-31T16:14:09;4.40;;;1.83;;
6013;SDS011;3035;49.928;8.410;2023-03-31T16:16:37;4.03;;;1.50;;
6013;SDS011;3035;49.928;8.410;2023-03-31T16:19:07;5.67;;;1.80;;
6013;SDS011;3035;49.928;8.410;2023-03-31T16:21:37;4.93;;;1.40;;
6013;SDS011;3035;49.928;8.410;2023-03-31T16:24:04;3.30;;;1.37;;
6013;SDS011;3035;49.928;8.410;2023-03-31T16:26:33;6.37;;;3.53;;
6013;SDS011;3035;49.928;8.410;2023-03-31T16:29:02;6.07;;;2.33;;
6013;SDS011;3035;49.928;8.410;2023-03-31T16:31:31;7.50;;;2.00;;
6013;SDS011;3035;49.928;8.410;2023-03-31T16:33:59;7.07;;;1.60;;
6013;SDS011;3035;49.928;8.410;2023-03-31T16:36:28;6.40;;;2.10;;
6013;SDS011;3035;49.928;8.410;2023-03-31T16:38:56;13.23;;;2.20;;
6013;SDS011;3035;49.928;8.410;2023-03-31T16:41:27;3.83;;;1.77;;
6013;SDS011;3035;49.928;8.410;2023-03-31T16:43:55;6.20;;;1.83;;
6013;SDS011;3035;49.928;8.410;2023-03-31T16:46:24;6.27;;;3.00;;
6013;SDS011;3035;49.928;8.410;2023-03-31T16:48:52;17.37;;;6.23;;
6013;SDS011;3035;49.928;8.410;2023-03-31T16:51:20;6.77;;;4.40;;
6013;SDS011;3035;49.928;8.410;2023-03-31T16:53:49;6.53;;;3.97;;
6013;SDS011;3035;49.928;8.410;2023-03-31T16:56:17;4.77;;;1.80;;